Flugplatz Kerken (UL)

Hier findest Du alle Informationen zum Flugplatz Kerken (UL).

Informationen für Piloten zum Flugplatz Kerken

Hier findest Du alle relevanten Informationen, die Du als Pilot benötigst, um Kerken anzufliegen.

Flugplatz: Kerken ICAO-Code: UL Flugplatz
Frequenz Turm: 123,425 Mhz GAFOR Gebiet: 31
Frequenz Ground: 123,425 Mhz Mogas: nein
Platzrunde: W 500 ft Landegebühr: 0 €
Platzhöhe: - Sunrise: 06:08 Uhr UTC
Pisten: 02/20 - 280 m x 20 m, GRAS Sunset: 16:29 Uhr UTC

Mitglieder, die in Kerken fliegen

Flugwetter am Flugplatz Kerken

Die METAR Information stammen aus EDLN (23.66 km entfernt).

METAR Code:
2019/10/11 14:50
EDLN 111450Z 22009KT 150V250 9999 FEW030 BKN040 17/11 Q1011

Flugschulen am Flugplatz Kerken

Am Flugplatz Kerken gibt es leider keine Flugschule.

Benachbarte Flugplätze und Flugschulen

Es gibt 16 weitere Flugplätze in einem Umkreis von 50 km um den Flugplatz Kerken.

Jetzt anmelden

Passwort vergessen

Anzeige: Skymap
Umfrage Archiv

Werdet Ihr Euer UL im Zuge der 600 kg MTOW auflasten lassen?

Ja, bei Kosten bis max. 5.000 Euro
43.7 %
Nein
32.3 %
Ja, bei Kosten bis max. 7.500 Euro
9.5 %
Ja, unabhängig von den Kosten
7.6 %
Ja, bei Kosten bis max. 10.000 Euro
7 %
Stimmen: 158 | Diskussion
Anzeige: Roland Aircraft
Statistik Alle Mitglieder

Aktuell sind 24 Besucher online, davon 1 Mitglied und 23 Gäste.


Mitglieder online:
Wiggl 

Anzeige: VFR Sprechfunk Simulator


Anzeige: Pocket FMS